sensor_id;sensor_type;location;lat;lon;timestamp;temperature;humidity
75964;DHT22;65820;44.726;37.764;2023-03-17T00:00:35;20.01;86.27
75964;DHT22;65820;44.726;37.764;2023-03-17T00:01:37;20.03;82.53
75964;DHT22;65820;44.726;37.764;2023-03-17T00:02:39;20.02;86.12
75964;DHT22;65820;44.726;37.764;2023-03-17T00:03:44;20.03;84.90
75964;DHT22;65820;44.726;37.764;2023-03-17T00:04:46;20.04;81.46
75964;DHT22;65820;44.726;37.764;2023-03-17T00:05:47;20.02;83.16
75964;DHT22;65820;44.726;37.764;2023-03-17T00:06:49;20.05;79.53
75964;DHT22;65820;44.726;37.764;2023-03-17T00:07:52;20.03;82.36
75964;DHT22;65820;44.726;37.764;2023-03-17T00:08:54;20.03;85.55
75964;DHT22;65820;44.726;37.764;2023-03-17T00:09:55;20.01;85.38
75964;DHT22;65820;44.726;37.764;2023-03-17T00:10:57;20.00;84.74
75964;DHT22;65820;44.726;37.764;2023-03-17T00:11:58;20.00;83.87
75964;DHT22;65820;44.726;37.764;2023-03-17T00:13:00;20.02;85.00
75964;DHT22;65820;44.726;37.764;2023-03-17T00:14:01;20.00;84.93
75964;DHT22;65820;44.726;37.764;2023-03-17T00:15:04;19.99;94.17
75964;DHT22;65820;44.726;37.764;2023-03-17T00:16:12;19.98;87.78
75964;DHT22;65820;44.726;37.764;2023-03-17T00:17:15;19.98;86.41
75964;DHT22;65820;44.726;37.764;2023-03-17T00:18:17;19.96;87.99
75964;DHT22;65820;44.726;37.764;2023-03-17T00:19:30;19.99;86.46
75964;DHT22;65820;44.726;37.764;2023-03-17T00:20:32;20.01;85.07
75964;DHT22;65820;44.726;37.764;2023-03-17T00:21:34;20.00;86.99
75964;DHT22;65820;44.726;37.764;2023-03-17T00:22:35;19.98;87.03
75964;DHT22;65820;44.726;37.764;2023-03-17T00:23:36;19.98;86.47
75964;DHT22;65820;44.726;37.764;2023-03-17T00:24:38;19.99;85.95
75964;DHT22;65820;44.726;37.764;2023-03-17T00:25:39;20.01;83.87
75964;DHT22;65820;44.726;37.764;2023-03-17T00:26:42;20.00;83.23
75964;DHT22;65820;44.726;37.764;2023-03-17T00:27:44;19.98;84.11
75964;DHT22;65820;44.726;37.764;2023-03-17T00:28:45;20.02;82.35
75964;DHT22;65820;44.726;37.764;2023-03-17T00:29:47;20.00;84.81
75964;DHT22;65820;44.726;37.764;2023-03-17T00:30:52;20.00;82.78
75964;DHT22;65820;44.726;37.764;2023-03-17T00:31:56;20.01;81.03
75964;DHT22;65820;44.726;37.764;2023-03-17T00:32:57;20.01;82.73
75964;DHT22;65820;44.726;37.764;2023-03-17T00:33:59;20.00;82.78
75964;DHT22;65820;44.726;37.764;2023-03-17T00:35:00;20.00;84.44
75964;DHT22;65820;44.726;37.764;2023-03-17T00:36:05;19.99;85.61
75964;DHT22;65820;44.726;37.764;2023-03-17T00:37:09;20.00;84.56
75964;DHT22;65820;44.726;37.764;2023-03-17T00:38:16;19.99;89.21
75964;DHT22;65820;44.726;37.764;2023-03-17T00:39:18;20.00;90.28
75964;DHT22;65820;44.726;37.764;2023-03-17T00:40:22;19.98;80.92
75964;DHT22;65820;44.726;37.764;2023-03-17T00:41:25;19.97;85.97
75964;DHT22;65820;44.726;37.764;2023-03-17T00:42:27;19.98;85.43
75964;DHT22;65820;44.726;37.764;2023-03-17T00:43:28;19.98;85.21
75964;DHT22;65820;44.726;37.764;2023-03-17T00:44:33;19.97;88.01
75964;DHT22;65820;44.726;37.764;2023-03-17T00:45:34;19.98;88.18
75964;DHT22;65820;44.726;37.764;2023-03-17T00:46:37;19.97;86.40
75964;DHT22;65820;44.726;37.764;2023-03-17T00:47:42;19.97;86.51
75964;DHT22;65820;44.726;37.764;2023-03-17T00:48:44;19.96;84.76
75964;DHT22;65820;44.726;37.764;2023-03-17T00:49:46;19.98;84.45
75964;DHT22;65820;44.726;37.764;2023-03-17T00:50:49;19.98;85.55
75964;DHT22;65820;44.726;37.764;2023-03-17T00:51:50;19.98;85.90
75964;DHT22;65820;44.726;37.764;2023-03-17T00:52:54;19.97;87.77
75964;DHT22;65820;44.726;37.764;2023-03-17T00:53:57;19.96;90.98
75964;DHT22;65820;44.726;37.764;2023-03-17T00:55:01;19.96;85.00
75964;DHT22;65820;44.726;37.764;2023-03-17T00:56:09;19.97;84.81
75964;DHT22;65820;44.726;37.764;2023-03-17T00:57:11;19.99;86.37
75964;DHT22;65820;44.726;37.764;2023-03-17T00:58:38;19.99;86.17
75964;DHT22;65820;44.726;37.764;2023-03-17T00:59:41;19.98;85.24
75964;DHT22;65820;44.726;37.764;2023-03-17T01:00:45;19.96;85.20
75964;DHT22;65820;44.726;37.764;2023-03-17T01:01:47;19.97;86.14
75964;DHT22;65820;44.726;37.764;2023-03-17T01:02:50;19.98;85.29
75964;DHT22;65820;44.726;37.764;2023-03-17T01:03:52;19.97;88.38
75964;DHT22;65820;44.726;37.764;2023-03-17T01:04:53;19.98;83.84
75964;DHT22;65820;44.726;37.764;2023-03-17T01:05:54;19.95;86.39
75964;DHT22;65820;44.726;37.764;2023-03-17T01:06:59;19.94;86.33
75964;DHT22;65820;44.726;37.764;2023-03-17T01:08:01;19.96;85.23
75964;DHT22;65820;44.726;37.764;2023-03-17T01:09:03;19.97;83.92
75964;DHT22;65820;44.726;37.764;2023-03-17T01:10:16;19.97;84.76
75964;DHT22;65820;44.726;37.764;2023-03-17T01:11:19;19.97;85.51
75964;DHT22;65820;44.726;37.764;2023-03-17T01:12:21;19.96;88.27
75964;DHT22;65820;44.726;37.764;2023-03-17T01:13:24;19.96;85.15
75964;DHT22;65820;44.726;37.764;2023-03-17T01:14:25;19.98;84.84
75964;DHT22;65820;44.726;37.764;2023-03-17T01:15:29;19.96;86.77
75964;DHT22;65820;44.726;37.764;2023-03-17T01:16:31;19.95;85.45
75964;DHT22;65820;44.726;37.764;2023-03-17T01:17:33;19.96;86.79
75964;DHT22;65820;44.726;37.764;2023-03-17T01:18:34;19.94;91.91
75964;DHT22;65820;44.726;37.764;2023-03-17T01:19:35;19.96;87.01
75964;DHT22;65820;44.726;37.764;2023-03-17T01:20:37;19.94;94.62
75964;DHT22;65820;44.726;37.764;2023-03-17T01:21:39;19.96;90.12
75964;DHT22;65820;44.726;37.764;2023-03-17T01:22:42;19.97;87.47
75964;DHT22;65820;44.726;37.764;2023-03-17T01:23:43;19.94;90.06
75964;DHT22;65820;44.726;37.764;2023-03-17T01:24:45;19.95;90.11
75964;DHT22;65820;44.726;37.764;2023-03-17T01:25:48;19.96;89.41
75964;DHT22;65820;44.726;37.764;2023-03-17T01:26:50;19.96;92.24
75964;DHT22;65820;44.726;37.764;2023-03-17T01:27:54;19.95;91.57
75964;DHT22;65820;44.726;37.764;2023-03-17T01:28:55;19.94;93.58
75964;DHT22;65820;44.726;37.764;2023-03-17T01:29:57;19.92;98.23
75964;DHT22;65820;44.726;37.764;2023-03-17T01:30:58;19.92;94.94
75964;DHT22;65820;44.726;37.764;2023-03-17T01:32:00;19.94;94.91
75964;DHT22;65820;44.726;37.764;2023-03-17T01:33:01;19.94;97.46
75964;DHT22;65820;44.726;37.764;2023-03-17T01:34:03;19.99;93.93
75964;DHT22;65820;44.726;37.764;2023-03-17T01:35:06;19.99;94.01
75964;DHT22;65820;44.726;37.764;2023-03-17T01:36:09;20.00;92.64
75964;DHT22;65820;44.726;37.764;2023-03-17T01:37:11;20.05;89.31
75964;DHT22;65820;44.726;37.764;2023-03-17T01:38:15;20.07;89.33
75964;DHT22;65820;44.726;37.764;2023-03-17T01:39:17;20.09;91.00
75964;DHT22;65820;44.726;37.764;2023-03-17T01:40:23;20.11;88.35
75964;DHT22;65820;44.726;37.764;2023-03-17T01:41:25;20.13;91.39
75964;DHT22;65820;44.726;37.764;2023-03-17T01:42:27;20.11;90.34
75964;DHT22;65820;44.726;37.764;2023-03-17T01:43:29;20.12;90.61
75964;DHT22;65820;44.726;37.764;2023-03-17T01:44:30;20.14;96.18
75964;DHT22;65820;44.726;37.764;2023-03-17T01:47:11;20.17;89.99
75964;DHT22;65820;44.726;37.764;2023-03-17T01:48:13;20.16;91.75
75964;DHT22;65820;44.726;37.764;2023-03-17T01:50:17;20.18;89.66
75964;DHT22;65820;44.726;37.764;2023-03-17T01:51:48;20.19;88.34
75964;DHT22;65820;44.726;37.764;2023-03-17T01:52:52;20.19;89.89
75964;DHT22;65820;44.726;37.764;2023-03-17T01:53:54;20.18;88.99
75964;DHT22;65820;44.726;37.764;2023-03-17T01:55:11;20.20;89.36
75964;DHT22;65820;44.726;37.764;2023-03-17T01:56:14;20.21;90.11
75964;DHT22;65820;44.726;37.764;2023-03-17T01:57:18;20.20;88.96
75964;DHT22;65820;44.726;37.764;2023-03-17T01:58:21;20.21;97.81
75964;DHT22;65820;44.726;37.764;2023-03-17T01:59:31;20.22;91.88
75964;DHT22;65820;44.726;37.764;2023-03-17T02:00:34;20.22;86.24
75964;DHT22;65820;44.726;37.764;2023-03-17T02:01:41;20.20;94.69
75964;DHT22;65820;44.726;37.764;2023-03-17T02:02:46;20.22;90.80
75964;DHT22;65820;44.726;37.764;2023-03-17T02:03:48;20.26;94.07
75964;DHT22;65820;44.726;37.764;2023-03-17T02:04:50;20.22;94.98
75964;DHT22;65820;44.726;37.764;2023-03-17T02:05:53;20.24;94.09
75964;DHT22;65820;44.726;37.764;2023-03-17T02:06:54;20.21;98.02
75964;DHT22;65820;44.726;37.764;2023-03-17T02:07:56;20.22;98.76
75964;DHT22;65820;44.726;37.764;2023-03-17T02:09:02;20.22;94.72
75964;DHT22;65820;44.726;37.764;2023-03-17T02:10:05;20.21;97.68
75964;DHT22;65820;44.726;37.764;2023-03-17T02:11:07;20.26;96.78
75964;DHT22;65820;44.726;37.764;2023-03-17T02:12:09;20.22;90.53
75964;DHT22;65820;44.726;37.764;2023-03-17T02:13:12;20.28;88.44
75964;DHT22;65820;44.726;37.764;2023-03-17T02:14:14;20.28;88.86
75964;DHT22;65820;44.726;37.764;2023-03-17T02:15:16;20.25;95.93
75964;DHT22;65820;44.726;37.764;2023-03-17T02:16:18;20.39;60.47
75964;DHT22;65820;44.726;37.764;2023-03-17T02:17:22;20.33;89.92
75964;DHT22;65820;44.726;37.764;2023-03-17T02:18:23;20.42;62.75
75964;DHT22;65820;44.726;37.764;2023-03-17T02:19:25;20.46;54.58
75964;DHT22;65820;44.726;37.764;2023-03-17T02:21:38;20.49;74.37
75964;DHT22;65820;44.726;37.764;2023-03-17T02:22:47;20.48;76.47
75964;DHT22;65820;44.726;37.764;2023-03-17T02:23:49;20.48;54.56
75964;DHT22;65820;44.726;37.764;2023-03-17T02:24:54;20.48;63.13
75964;DHT22;65820;44.726;37.764;2023-03-17T02:25:56;20.47;61.97
75964;DHT22;65820;44.726;37.764;2023-03-17T02:27:11;20.48;54.78
75964;DHT22;65820;44.726;37.764;2023-03-17T02:28:16;20.46;86.28
75964;DHT22;65820;44.726;37.764;2023-03-17T02:29:20;20.46;60.31
75964;DHT22;65820;44.726;37.764;2023-03-17T02:30:23;20.46;55.75
75964;DHT22;65820;44.726;37.764;2023-03-17T02:31:25;20.41;56.12
75964;DHT22;65820;44.726;37.764;2023-03-17T02:32:27;20.19;99.57
75964;DHT22;65820;44.726;37.764;2023-03-17T02:33:29;20.39;61.52
75964;DHT22;65820;44.726;37.764;2023-03-17T02:34:32;20.41;67.91
75964;DHT22;65820;44.726;37.764;2023-03-17T02:35:34;20.27;84.68
75964;DHT22;65820;44.726;37.764;2023-03-17T02:36:35;20.15;92.16
75964;DHT22;65820;44.726;37.764;2023-03-17T02:37:37;20.32;81.72
75964;DHT22;65820;44.726;37.764;2023-03-17T02:38:38;20.30;96.20
75964;DHT22;65820;44.726;37.764;2023-03-17T02:39:40;20.21;95.62
75964;DHT22;65820;44.726;37.764;2023-03-17T02:40:41;20.16;107.85
75964;DHT22;65820;44.726;37.764;2023-03-17T02:41:42;20.26;57.98
75964;DHT22;65820;44.726;37.764;2023-03-17T02:42:44;20.21;76.83
75964;DHT22;65820;44.726;37.764;2023-03-17T02:43:45;20.15;68.65
75964;DHT22;65820;44.726;37.764;2023-03-17T02:44:46;20.30;78.93
75964;DHT22;65820;44.726;37.764;2023-03-17T02:45:48;20.32;74.92
75964;DHT22;65820;44.726;37.764;2023-03-17T02:46:49;20.32;84.52
75964;DHT22;65820;44.726;37.764;2023-03-17T02:47:51;20.31;65.64
75964;DHT22;65820;44.726;37.764;2023-03-17T02:48:53;20.30;74.50
75964;DHT22;65820;44.726;37.764;2023-03-17T02:49:55;20.28;70.42
75964;DHT22;65820;44.726;37.764;2023-03-17T02:50:56;20.29;89.45
75964;DHT22;65820;44.726;37.764;2023-03-17T02:51:57;20.22;86.00
75964;DHT22;65820;44.726;37.764;2023-03-17T02:52:59;20.28;57.36
75964;DHT22;65820;44.726;37.764;2023-03-17T02:54:00;20.04;99.19
75964;DHT22;65820;44.726;37.764;2023-03-17T02:55:01;20.26;56.24
75964;DHT22;65820;44.726;37.764;2023-03-17T02:56:03;20.26;54.83
75964;DHT22;65820;44.726;37.764;2023-03-17T02:57:05;20.22;60.01
75964;DHT22;65820;44.726;37.764;2023-03-17T02:58:08;20.20;69.78
75964;DHT22;65820;44.726;37.764;2023-03-17T02:59:09;20.24;89.05
75964;DHT22;65820;44.726;37.764;2023-03-17T03:00:11;20.27;90.41
75964;DHT22;65820;44.726;37.764;2023-03-17T03:01:14;20.24;61.28
75964;DHT22;65820;44.726;37.764;2023-03-17T03:02:16;20.24;98.16
75964;DHT22;65820;44.726;37.764;2023-03-17T03:03:17;20.04;93.40
75964;DHT22;65820;44.726;37.764;2023-03-17T03:04:19;20.13;88.78
75964;DHT22;65820;44.726;37.764;2023-03-17T03:05:20;20.17;64.96
75964;DHT22;65820;44.726;37.764;2023-03-17T03:06:22;20.15;84.56
75964;DHT22;65820;44.726;37.764;2023-03-17T03:07:26;20.02;81.91
75964;DHT22;65820;44.726;37.764;2023-03-17T03:08:27;20.10;85.14
75964;DHT22;65820;44.726;37.764;2023-03-17T03:09:29;20.02;94.27
75964;DHT22;65820;44.726;37.764;2023-03-17T03:10:30;20.10;86.12
75964;DHT22;65820;44.726;37.764;2023-03-17T03:11:32;19.99;88.28
75964;DHT22;65820;44.726;37.764;2023-03-17T03:12:33;20.06;97.32
75964;DHT22;65820;44.726;37.764;2023-03-17T03:13:35;20.07;85.32
75964;DHT22;65820;44.726;37.764;2023-03-17T03:14:37;20.11;78.57
75964;DHT22;65820;44.726;37.764;2023-03-17T03:15:40;20.16;68.62
75964;DHT22;65820;44.726;37.764;2023-03-17T03:16:41;20.19;86.35
75964;DHT22;65820;44.726;37.764;2023-03-17T03:17:43;20.14;96.43
75964;DHT22;65820;44.726;37.764;2023-03-17T03:18:44;20.15;93.79
75964;DHT22;65820;44.726;37.764;2023-03-17T03:19:46;20.16;95.43
75964;DHT22;65820;44.726;37.764;2023-03-17T03:20:49;20.17;92.71
75964;DHT22;65820;44.726;37.764;2023-03-17T03:21:50;20.15;91.32
75964;DHT22;65820;44.726;37.764;2023-03-17T03:22:51;20.17;68.04
75964;DHT22;65820;44.726;37.764;2023-03-17T03:23:53;20.16;97.76
75964;DHT22;65820;44.726;37.764;2023-03-17T03:24:54;20.18;93.89
75964;DHT22;65820;44.726;37.764;2023-03-17T03:25:55;20.14;64.70
75964;DHT22;65820;44.726;37.764;2023-03-17T03:26:57;20.16;94.20
75964;DHT22;65820;44.726;37.764;2023-03-17T03:27:58;20.12;96.75
75964;DHT22;65820;44.726;37.764;2023-03-17T03:29:00;20.10;80.20
75964;DHT22;65820;44.726;37.764;2023-03-17T03:30:02;20.13;92.72
75964;DHT22;65820;44.726;37.764;2023-03-17T03:31:04;20.12;96.82
75964;DHT22;65820;44.726;37.764;2023-03-17T03:32:06;20.13;87.39
75964;DHT22;65820;44.726;37.764;2023-03-17T03:33:07;20.05;62.28
75964;DHT22;65820;44.726;37.764;2023-03-17T03:34:08;20.13;77.76
75964;DHT22;65820;44.726;37.764;2023-03-17T03:35:09;20.11;92.83
75964;DHT22;65820;44.726;37.764;2023-03-17T03:36:11;20.15;90.91
75964;DHT22;65820;44.726;37.764;2023-03-17T03:37:13;20.15;93.85
75964;DHT22;65820;44.726;37.764;2023-03-17T03:38:14;20.14;79.59
75964;DHT22;65820;44.726;37.764;2023-03-17T03:39:16;20.13;90.33
75964;DHT22;65820;44.726;37.764;2023-03-17T03:40:17;19.96;102.22
75964;DHT22;65820;44.726;37.764;2023-03-17T03:41:18;20.12;95.39
75964;DHT22;65820;44.726;37.764;2023-03-17T03:42:19;20.05;88.45
75964;DHT22;65820;44.726;37.764;2023-03-17T03:43:21;19.92;108.38
75964;DHT22;65820;44.726;37.764;2023-03-17T03:44:23;19.94;101.96
75964;DHT22;65820;44.726;37.764;2023-03-17T03:45:24;19.92;106.64
75964;DHT22;65820;44.726;37.764;2023-03-17T03:46:27;20.15;86.37
75964;DHT22;65820;44.726;37.764;2023-03-17T03:47:28;20.14;95.75
75964;DHT22;65820;44.726;37.764;2023-03-17T03:48:29;20.14;99.74
75964;DHT22;65820;44.726;37.764;2023-03-17T03:49:30;20.15;86.94
75964;DHT22;65820;44.726;37.764;2023-03-17T03:50:32;20.04;106.20
75964;DHT22;65820;44.726;37.764;2023-03-17T03:51:33;20.03;118.99
75964;DHT22;65820;44.726;37.764;2023-03-17T03:52:35;20.03;63.12
75964;DHT22;65820;44.726;37.764;2023-03-17T03:53:37;20.15;58.58
75964;DHT22;65820;44.726;37.764;2023-03-17T03:54:38;19.88;106.35
75964;DHT22;65820;44.726;37.764;2023-03-17T03:55:40;20.14;86.39
75964;DHT22;65820;44.726;37.764;2023-03-17T03:56:41;20.11;103.21
75964;DHT22;65820;44.726;37.764;2023-03-17T03:57:42;20.12;94.48
75964;DHT22;65820;44.726;37.764;2023-03-17T03:58:44;20.10;83.42
75964;DHT22;65820;44.726;37.764;2023-03-17T03:59:45;19.86;109.15
75964;DHT22;65820;44.726;37.764;2023-03-17T04:00:47;20.17;99.61
75964;DHT22;65820;44.726;37.764;2023-03-17T04:01:48;20.04;99.68
75964;DHT22;65820;44.726;37.764;2023-03-17T04:02:49;20.07;90.14
75964;DHT22;65820;44.726;37.764;2023-03-17T04:03:50;19.90;100.70
75964;DHT22;65820;44.726;37.764;2023-03-17T04:04:52;20.14;103.70
75964;DHT22;65820;44.726;37.764;2023-03-17T04:05:54;20.01;104.23
75964;DHT22;65820;44.726;37.764;2023-03-17T04:06:55;20.06;71.53
75964;DHT22;65820;44.726;37.764;2023-03-17T04:07:56;19.96;106.98
75964;DHT22;65820;44.726;37.764;2023-03-17T04:08:58;19.98;89.08
75964;DHT22;65820;44.726;37.764;2023-03-17T04:09:59;20.07;75.85
75964;DHT22;65820;44.726;37.764;2023-03-17T04:11:00;20.07;78.49
75964;DHT22;65820;44.726;37.764;2023-03-17T04:12:02;19.96;82.71
75964;DHT22;65820;44.726;37.764;2023-03-17T04:13:03;20.15;91.72
75964;DHT22;65820;44.726;37.764;2023-03-17T04:14:05;20.16;101.92
75964;DHT22;65820;44.726;37.764;2023-03-17T04:15:07;20.15;91.78
75964;DHT22;65820;44.726;37.764;2023-03-17T04:16:09;20.10;62.35
75964;DHT22;65820;44.726;37.764;2023-03-17T04:17:11;19.98;107.33
75964;DHT22;65820;44.726;37.764;2023-03-17T04:18:13;19.94;104.57
75964;DHT22;65820;44.726;37.764;2023-03-17T04:19:14;19.99;89.92
75964;DHT22;65820;44.726;37.764;2023-03-17T04:20:16;19.98;90.12
75964;DHT22;65820;44.726;37.764;2023-03-17T04:21:17;19.99;96.57
75964;DHT22;65820;44.726;37.764;2023-03-17T04:22:20;19.99;100.90
75964;DHT22;65820;44.726;37.764;2023-03-17T04:23:22;20.02;98.69
75964;DHT22;65820;44.726;37.764;2023-03-17T04:24:23;19.99;103.17
75964;DHT22;65820;44.726;37.764;2023-03-17T04:25:25;19.99;106.48
75964;DHT22;65820;44.726;37.764;2023-03-17T04:26:26;20.02;106.89
75964;DHT22;65820;44.726;37.764;2023-03-17T04:27:28;19.96;111.34
75964;DHT22;65820;44.726;37.764;2023-03-17T04:28:29;19.94;109.08
75964;DHT22;65820;44.726;37.764;2023-03-17T04:29:31;19.95;112.39
75964;DHT22;65820;44.726;37.764;2023-03-17T04:30:32;19.92;111.21
75964;DHT22;65820;44.726;37.764;2023-03-17T04:31:34;19.94;66.16
75964;DHT22;65820;44.726;37.764;2023-03-17T04:32:35;20.22;90.34
75964;DHT22;65820;44.726;37.764;2023-03-17T04:33:37;20.02;107.94
75964;DHT22;65820;44.726;37.764;2023-03-17T04:34:39;19.96;100.67
75964;DHT22;65820;44.726;37.764;2023-03-17T04:35:40;20.15;67.23
75964;DHT22;65820;44.726;37.764;2023-03-17T04:36:45;19.92;102.00
75964;DHT22;65820;44.726;37.764;2023-03-17T04:37:48;20.25;108.78
75964;DHT22;65820;44.726;37.764;2023-03-17T04:38:49;20.04;107.32
75964;DHT22;65820;44.726;37.764;2023-03-17T04:39:50;20.14;105.69
75964;DHT22;65820;44.726;37.764;2023-03-17T04:40:52;20.09;97.03
75964;DHT22;65820;44.726;37.764;2023-03-17T04:41:53;20.10;104.71
75964;DHT22;65820;44.726;37.764;2023-03-17T04:42:54;20.20;105.44
75964;DHT22;65820;44.726;37.764;2023-03-17T04:43:55;20.18;103.72
75964;DHT22;65820;44.726;37.764;2023-03-17T04:44:57;20.16;98.80
75964;DHT22;65820;44.726;37.764;2023-03-17T04:45:58;20.14;96.16
75964;DHT22;65820;44.726;37.764;2023-03-17T04:46:59;20.12;105.27
75964;DHT22;65820;44.726;37.764;2023-03-17T04:48:00;20.24;100.43
75964;DHT22;65820;44.726;37.764;2023-03-17T04:49:02;19.97;106.33
75964;DHT22;65820;44.726;37.764;2023-03-17T04:50:04;20.22;100.16
75964;DHT22;65820;44.726;37.764;2023-03-17T04:51:05;19.94;92.13
75964;DHT22;65820;44.726;37.764;2023-03-17T04:52:06;19.99;94.81
75964;DHT22;65820;44.726;37.764;2023-03-17T04:53:08;20.19;97.64
75964;DHT22;65820;44.726;37.764;2023-03-17T04:54:10;20.05;91.60
75964;DHT22;65820;44.726;37.764;2023-03-17T04:55:12;20.19;100.48
75964;DHT22;65820;44.726;37.764;2023-03-17T04:56:13;20.12;91.16
75964;DHT22;65820;44.726;37.764;2023-03-17T04:57:15;20.18;93.80
75964;DHT22;65820;44.726;37.764;2023-03-17T04:58:16;20.16;89.98
75964;DHT22;65820;44.726;37.764;2023-03-17T04:59:18;19.97;92.53
75964;DHT22;65820;44.726;37.764;2023-03-17T05:00:19;20.18;101.79
75964;DHT22;65820;44.726;37.764;2023-03-17T05:01:21;20.20;91.24
75964;DHT22;65820;44.726;37.764;2023-03-17T05:02:22;20.21;90.92
75964;DHT22;65820;44.726;37.764;2023-03-17T05:03:24;20.02;93.91
75964;DHT22;65820;44.726;37.764;2023-03-17T05:04:25;20.20;90.67
75964;DHT22;65820;44.726;37.764;2023-03-17T05:05:26;19.98;100.93
75964;DHT22;65820;44.726;37.764;2023-03-17T05:06:28;20.12;68.15
75964;DHT22;65820;44.726;37.764;2023-03-17T05:07:29;20.20;86.77
75964;DHT22;65820;44.726;37.764;2023-03-17T05:08:31;20.17;54.43
75964;DHT22;65820;44.726;37.764;2023-03-17T05:09:32;20.26;54.13
75964;DHT22;65820;44.726;37.764;2023-03-17T05:10:33;20.22;54.20
75964;DHT22;65820;44.726;37.764;2023-03-17T05:11:34;20.25;53.51
75964;DHT22;65820;44.726;37.764;2023-03-17T05:12:36;20.24;53.54
75964;DHT22;65820;44.726;37.764;2023-03-17T05:13:37;20.25;53.51
75964;DHT22;65820;44.726;37.764;2023-03-17T05:14:40;20.26;53.43
75964;DHT22;65820;44.726;37.764;2023-03-17T05:15:49;20.25;54.68
75964;DHT22;65820;44.726;37.764;2023-03-17T05:16:51;20.22;55.78
75964;DHT22;65820;44.726;37.764;2023-03-17T05:17:52;20.22;53.55
75964;DHT22;65820;44.726;37.764;2023-03-17T05:18:53;20.24;54.10
75964;DHT22;65820;44.726;37.764;2023-03-17T05:19:55;20.22;55.16
75964;DHT22;65820;44.726;37.764;2023-03-17T05:20:56;20.22;53.52
75964;DHT22;65820;44.726;37.764;2023-03-17T05:21:57;20.22;53.56
75964;DHT22;65820;44.726;37.764;2023-03-17T05:22:58;20.24;53.52
75964;DHT22;65820;44.726;37.764;2023-03-17T05:24:00;20.22;53.51
75964;DHT22;65820;44.726;37.764;2023-03-17T05:25:02;20.20;56.27
75964;DHT22;65820;44.726;37.764;2023-03-17T05:26:04;20.21;55.14
75964;DHT22;65820;44.726;37.764;2023-03-17T05:27:25;20.20;56.70
75964;DHT22;65820;44.726;37.764;2023-03-17T05:28:26;20.19;56.14
75964;DHT22;65820;44.726;37.764;2023-03-17T05:29:28;20.22;53.45
75964;DHT22;65820;44.726;37.764;2023-03-17T05:30:29;20.19;55.71
75964;DHT22;65820;44.726;37.764;2023-03-17T05:31:30;20.20;54.07
75964;DHT22;65820;44.726;37.764;2023-03-17T05:32:32;20.19;55.68
75964;DHT22;65820;44.726;37.764;2023-03-17T05:33:34;20.22;53.64
75964;DHT22;65820;44.726;37.764;2023-03-17T05:34:37;20.22;53.52
75964;DHT22;65820;44.726;37.764;2023-03-17T05:35:38;20.22;53.40
75964;DHT22;65820;44.726;37.764;2023-03-17T05:36:40;20.21;53.43
75964;DHT22;65820;44.726;37.764;2023-03-17T05:37:42;20.22;53.68
75964;DHT22;65820;44.726;37.764;2023-03-17T05:38:43;20.22;53.97
75964;DHT22;65820;44.726;37.764;2023-03-17T05:39:45;20.22;53.50
75964;DHT22;65820;44.726;37.764;2023-03-17T05:40:49;20.22;53.39
75964;DHT22;65820;44.726;37.764;2023-03-17T05:41:51;20.22;53.43
75964;DHT22;65820;44.726;37.764;2023-03-17T05:42:52;20.24;53.43
75964;DHT22;65820;44.726;37.764;2023-03-17T05:43:53;20.22;53.82
75964;DHT22;65820;44.726;37.764;2023-03-17T05:44:54;20.21;54.10
75964;DHT22;65820;44.726;37.764;2023-03-17T05:45:56;20.07;56.54
75964;DHT22;65820;44.726;37.764;2023-03-17T05:46:57;20.21;54.36
75964;DHT22;65820;44.726;37.764;2023-03-17T05:47:59;20.19;57.87
75964;DHT22;65820;44.726;37.764;2023-03-17T05:49:01;20.18;60.93
75964;DHT22;65820;44.726;37.764;2023-03-17T05:50:03;20.17;55.00
75964;DHT22;65820;44.726;37.764;2023-03-17T05:51:05;20.18;55.63
75964;DHT22;65820;44.726;37.764;2023-03-17T05:52:06;20.20;56.07
75964;DHT22;65820;44.726;37.764;2023-03-17T05:53:08;20.12;67.32
75964;DHT22;65820;44.726;37.764;2023-03-17T05:54:10;20.19;59.12
75964;DHT22;65820;44.726;37.764;2023-03-17T05:55:12;20.20;60.67
75964;DHT22;65820;44.726;37.764;2023-03-17T05:56:13;20.16;65.16
75964;DHT22;65820;44.726;37.764;2023-03-17T05:57:14;20.16;65.51
75964;DHT22;65820;44.726;37.764;2023-03-17T05:58:16;20.15;59.30
75964;DHT22;65820;44.726;37.764;2023-03-17T05:59:18;20.16;77.21
75964;DHT22;65820;44.726;37.764;2023-03-17T06:00:19;20.19;62.83
75964;DHT22;65820;44.726;37.764;2023-03-17T06:01:21;20.19;58.83
75964;DHT22;65820;44.726;37.764;2023-03-17T06:02:22;20.18;76.21
75964;DHT22;65820;44.726;37.764;2023-03-17T06:03:24;20.20;68.71
75964;DHT22;65820;44.726;37.764;2023-03-17T06:04:25;20.17;63.24
75964;DHT22;65820;44.726;37.764;2023-03-17T06:05:27;20.20;60.64
75964;DHT22;65820;44.726;37.764;2023-03-17T06:06:29;20.21;62.62
75964;DHT22;65820;44.726;37.764;2023-03-17T06:07:30;20.20;63.31
75964;DHT22;65820;44.726;37.764;2023-03-17T06:08:31;20.19;63.50
75964;DHT22;65820;44.726;37.764;2023-03-17T06:09:33;20.16;72.71
75964;DHT22;65820;44.726;37.764;2023-03-17T06:10:34;20.19;63.80
75964;DHT22;65820;44.726;37.764;2023-03-17T06:11:36;20.14;68.19
75964;DHT22;65820;44.726;37.764;2023-03-17T06:12:38;20.16;62.14
75964;DHT22;65820;44.726;37.764;2023-03-17T06:13:39;20.17;64.66
75964;DHT22;65820;44.726;37.764;2023-03-17T06:14:40;20.17;65.59
75964;DHT22;65820;44.726;37.764;2023-03-17T06:15:42;20.20;81.53
75964;DHT22;65820;44.726;37.764;2023-03-17T06:16:43;20.09;86.41
75964;DHT22;65820;44.726;37.764;2023-03-17T06:17:45;20.11;78.95
75964;DHT22;65820;44.726;37.764;2023-03-17T06:18:46;20.13;80.65
75964;DHT22;65820;44.726;37.764;2023-03-17T06:19:48;20.18;81.92
75964;DHT22;65820;44.726;37.764;2023-03-17T06:20:49;20.05;84.14
75964;DHT22;65820;44.726;37.764;2023-03-17T06:21:51;20.17;87.86
75964;DHT22;65820;44.726;37.764;2023-03-17T06:22:52;20.11;82.05
75964;DHT22;65820;44.726;37.764;2023-03-17T06:23:57;20.16;70.82
75964;DHT22;65820;44.726;37.764;2023-03-17T06:24:58;20.10;81.46
75964;DHT22;65820;44.726;37.764;2023-03-17T06:25:59;20.05;58.11
75964;DHT22;65820;44.726;37.764;2023-03-17T06:27:01;20.18;62.79
75964;DHT22;65820;44.726;37.764;2023-03-17T06:28:04;20.07;84.57
75964;DHT22;65820;44.726;37.764;2023-03-17T06:29:05;20.14;91.44
75964;DHT22;65820;44.726;37.764;2023-03-17T06:30:10;20.12;87.48
75964;DHT22;65820;44.726;37.764;2023-03-17T06:31:12;20.05;98.60